sensor_id;sensor_type;location;lat;lon;timestamp;P1;durP1;ratioP1;P2;durP2;ratioP2
28547;SDS011;68292;49.600;8.746;2023-06-10T00:01:43;7.35;;;6.75;;
28547;SDS011;68292;49.600;8.746;2023-06-10T00:04:33;8.00;;;7.30;;
28547;SDS011;68292;49.600;8.746;2023-06-10T00:07:21;8.07;;;7.38;;
28547;SDS011;68292;49.600;8.746;2023-06-10T00:10:08;8.00;;;7.40;;
28547;SDS011;68292;49.600;8.746;2023-06-10T00:12:55;8.25;;;7.55;;
28547;SDS011;68292;49.600;8.746;2023-06-10T00:15:42;8.75;;;7.93;;
28547;SDS011;68292;49.600;8.746;2023-06-10T00:18:29;9.60;;;8.07;;
28547;SDS011;68292;49.600;8.746;2023-06-10T00:21:18;8.88;;;8.07;;
28547;SDS011;68292;49.600;8.746;2023-06-10T00:24:05;9.20;;;8.35;;
28547;SDS011;68292;49.600;8.746;2023-06-10T00:26:54;9.07;;;8.00;;
28547;SDS011;68292;49.600;8.746;2023-06-10T00:29:41;9.27;;;8.38;;
28547;SDS011;68292;49.600;8.746;2023-06-10T00:32:27;8.55;;;7.72;;
28547;SDS011;68292;49.600;8.746;2023-06-10T00:35:14;8.60;;;7.85;;
28547;SDS011;68292;49.600;8.746;2023-06-10T00:38:02;9.57;;;8.63;;
28547;SDS011;68292;49.600;8.746;2023-06-10T00:40:49;9.93;;;9.00;;
28547;SDS011;68292;49.600;8.746;2023-06-10T00:43:35;8.90;;;8.10;;
28547;SDS011;68292;49.600;8.746;2023-06-10T00:46:22;9.18;;;8.20;;
28547;SDS011;68292;49.600;8.746;2023-06-10T00:49:13;9.93;;;8.30;;
28547;SDS011;68292;49.600;8.746;2023-06-10T00:52:00;9.60;;;8.55;;
28547;SDS011;68292;49.600;8.746;2023-06-10T00:54:49;9.20;;;8.40;;
28547;SDS011;68292;49.600;8.746;2023-06-10T00:57:36;9.00;;;8.23;;
28547;SDS011;68292;49.600;8.746;2023-06-10T01:00:23;9.00;;;8.23;;
28547;SDS011;68292;49.600;8.746;2023-06-10T01:03:10;9.18;;;8.27;;
28547;SDS011;68292;49.600;8.746;2023-06-10T01:05:57;8.90;;;8.00;;
28547;SDS011;68292;49.600;8.746;2023-06-10T01:08:54;9.02;;;8.30;;
28547;SDS011;68292;49.600;8.746;2023-06-10T01:11:49;9.00;;;8.20;;
28547;SDS011;68292;49.600;8.746;2023-06-10T01:14:55;8.77;;;8.07;;
28547;SDS011;68292;49.600;8.746;2023-06-10T01:17:55;9.45;;;8.65;;
28547;SDS011;68292;49.600;8.746;2023-06-10T01:20:44;9.02;;;8.32;;
28547;SDS011;68292;49.600;8.746;2023-06-10T01:23:36;9.30;;;8.40;;
28547;SDS011;68292;49.600;8.746;2023-06-10T01:26:25;9.57;;;8.77;;
28547;SDS011;68292;49.600;8.746;2023-06-10T01:29:17;8.23;;;7.60;;
28547;SDS011;68292;49.600;8.746;2023-06-10T01:32:10;8.88;;;8.07;;
28547;SDS011;68292;49.600;8.746;2023-06-10T01:35:03;9.32;;;8.50;;
28547;SDS011;68292;49.600;8.746;2023-06-10T01:37:54;9.23;;;8.43;;
28547;SDS011;68292;49.600;8.746;2023-06-10T01:40:46;8.68;;;7.95;;
28547;SDS011;68292;49.600;8.746;2023-06-10T01:43:34;9.13;;;7.72;;
28547;SDS011;68292;49.600;8.746;2023-06-10T01:46:24;8.18;;;7.57;;
28547;SDS011;68292;49.600;8.746;2023-06-10T01:49:12;8.20;;;7.40;;
28547;SDS011;68292;49.600;8.746;2023-06-10T01:52:01;9.25;;;8.30;;
28547;SDS011;68292;49.600;8.746;2023-06-10T01:54:50;7.95;;;7.15;;
28547;SDS011;68292;49.600;8.746;2023-06-10T01:57:38;8.50;;;7.80;;
28547;SDS011;68292;49.600;8.746;2023-06-10T02:00:26;8.55;;;7.65;;
28547;SDS011;68292;49.600;8.746;2023-06-10T02:03:13;8.98;;;8.15;;
28547;SDS011;68292;49.600;8.746;2023-06-10T02:06:00;8.50;;;7.80;;
28547;SDS011;68292;49.600;8.746;2023-06-10T02:08:46;7.47;;;6.88;;
28547;SDS011;68292;49.600;8.746;2023-06-10T02:11:33;8.73;;;7.93;;
28547;SDS011;68292;49.600;8.746;2023-06-10T02:14:21;8.80;;;8.07;;
28547;SDS011;68292;49.600;8.746;2023-06-10T02:17:08;8.35;;;7.65;;
28547;SDS011;68292;49.600;8.746;2023-06-10T02:19:59;8.15;;;7.47;;
28547;SDS011;68292;49.600;8.746;2023-06-10T02:22:51;8.75;;;8.05;;
28547;SDS011;68292;49.600;8.746;2023-06-10T02:25:39;8.70;;;7.10;;
28547;SDS011;68292;49.600;8.746;2023-06-10T02:28:25;8.40;;;7.60;;
28547;SDS011;68292;49.600;8.746;2023-06-10T02:31:14;8.65;;;7.93;;
28547;SDS011;68292;49.600;8.746;2023-06-10T02:34:03;10.82;;;7.13;;
28547;SDS011;68292;49.600;8.746;2023-06-10T02:36:50;8.93;;;8.10;;
28547;SDS011;68292;49.600;8.746;2023-06-10T02:39:39;8.10;;;7.47;;
28547;SDS011;68292;49.600;8.746;2023-06-10T02:42:28;8.77;;;7.45;;
28547;SDS011;68292;49.600;8.746;2023-06-10T02:45:15;8.63;;;7.78;;
28547;SDS011;68292;49.600;8.746;2023-06-10T02:48:03;10.88;;;8.15;;
28547;SDS011;68292;49.600;8.746;2023-06-10T02:50:51;7.95;;;7.32;;
28547;SDS011;68292;49.600;8.746;2023-06-10T02:53:50;8.30;;;7.60;;
28547;SDS011;68292;49.600;8.746;2023-06-10T02:56:37;8.23;;;7.43;;
28547;SDS011;68292;49.600;8.746;2023-06-10T02:59:33;7.75;;;7.07;;
28547;SDS011;68292;49.600;8.746;2023-06-10T03:02:19;8.23;;;7.53;;
28547;SDS011;68292;49.600;8.746;2023-06-10T03:05:10;8.88;;;8.13;;
28547;SDS011;68292;49.600;8.746;2023-06-10T03:08:01;9.02;;;8.18;;
28547;SDS011;68292;49.600;8.746;2023-06-10T03:10:49;8.63;;;7.85;;
28547;SDS011;68292;49.600;8.746;2023-06-10T03:13:38;8.52;;;7.55;;
28547;SDS011;68292;49.600;8.746;2023-06-10T03:16:28;9.10;;;8.20;;
28547;SDS011;68292;49.600;8.746;2023-06-10T03:19:17;8.27;;;7.47;;
28547;SDS011;68292;49.600;8.746;2023-06-10T03:22:09;7.85;;;7.15;;
28547;SDS011;68292;49.600;8.746;2023-06-10T03:25:21;7.45;;;6.78;;
28547;SDS011;68292;49.600;8.746;2023-06-10T03:28:10;8.77;;;7.53;;
28547;SDS011;68292;49.600;8.746;2023-06-10T03:30:58;8.25;;;7.55;;
28547;SDS011;68292;49.600;8.746;2023-06-10T03:33:47;7.78;;;7.18;;
28547;SDS011;68292;49.600;8.746;2023-06-10T03:36:33;8.45;;;7.75;;
28547;SDS011;68292;49.600;8.746;2023-06-10T03:39:25;8.15;;;7.45;;
28547;SDS011;68292;49.600;8.746;2023-06-10T03:42:15;7.90;;;7.20;;
28547;SDS011;68292;49.600;8.746;2023-06-10T03:45:02;7.65;;;7.05;;
28547;SDS011;68292;49.600;8.746;2023-06-10T03:47:53;8.02;;;7.32;;
28547;SDS011;68292;49.600;8.746;2023-06-10T03:50:44;8.63;;;7.82;;
28547;SDS011;68292;49.600;8.746;2023-06-10T03:53:32;8.38;;;7.57;;
28547;SDS011;68292;49.600;8.746;2023-06-10T03:56:20;8.63;;;7.72;;
28547;SDS011;68292;49.600;8.746;2023-06-10T03:59:08;7.95;;;7.35;;
28547;SDS011;68292;49.600;8.746;2023-06-10T04:01:54;8.30;;;7.50;;
28547;SDS011;68292;49.600;8.746;2023-06-10T04:04:41;8.20;;;7.40;;
28547;SDS011;68292;49.600;8.746;2023-06-10T04:07:28;7.97;;;7.28;;
28547;SDS011;68292;49.600;8.746;2023-06-10T04:10:15;8.32;;;7.53;;
28547;SDS011;68292;49.600;8.746;2023-06-10T04:13:03;8.05;;;7.25;;
28547;SDS011;68292;49.600;8.746;2023-06-10T04:15:56;8.30;;;7.50;;
28547;SDS011;68292;49.600;8.746;2023-06-10T04:18:43;8.35;;;7.05;;
28547;SDS011;68292;49.600;8.746;2023-06-10T04:21:30;8.38;;;7.75;;
28547;SDS011;68292;49.600;8.746;2023-06-10T04:24:18;7.78;;;7.07;;
28547;SDS011;68292;49.600;8.746;2023-06-10T04:27:05;8.70;;;7.90;;
28547;SDS011;68292;49.600;8.746;2023-06-10T04:29:54;8.32;;;7.53;;
28547;SDS011;68292;49.600;8.746;2023-06-10T04:32:41;8.63;;;7.82;;
28547;SDS011;68292;49.600;8.746;2023-06-10T04:35:32;7.90;;;7.20;;
28547;SDS011;68292;49.600;8.746;2023-06-10T04:38:20;8.65;;;7.93;;
28547;SDS011;68292;49.600;8.746;2023-06-10T04:41:07;9.82;;;8.18;;
28547;SDS011;68292;49.600;8.746;2023-06-10T04:43:54;9.00;;;7.60;;
28547;SDS011;68292;49.600;8.746;2023-06-10T04:46:44;9.88;;;7.90;;
28547;SDS011;68292;49.600;8.746;2023-06-10T04:49:31;8.93;;;8.07;;
28547;SDS011;68292;49.600;8.746;2023-06-10T04:52:18;8.00;;;7.20;;
28547;SDS011;68292;49.600;8.746;2023-06-10T04:55:05;8.38;;;7.63;;
28547;SDS011;68292;49.600;8.746;2023-06-10T04:57:53;8.45;;;7.65;;
28547;SDS011;68292;49.600;8.746;2023-06-10T05:00:40;8.70;;;7.78;;
28547;SDS011;68292;49.600;8.746;2023-06-10T05:03:29;8.05;;;7.35;;
28547;SDS011;68292;49.600;8.746;2023-06-10T05:06:16;9.13;;;8.32;;
28547;SDS011;68292;49.600;8.746;2023-06-10T05:09:03;8.10;;;7.40;;
28547;SDS011;68292;49.600;8.746;2023-06-10T05:11:50;8.25;;;7.55;;
28547;SDS011;68292;49.600;8.746;2023-06-10T05:14:38;8.75;;;7.95;;
28547;SDS011;68292;49.600;8.746;2023-06-10T05:17:25;9.63;;;7.15;;
28547;SDS011;68292;49.600;8.746;2023-06-10T05:20:14;8.32;;;7.63;;
28547;SDS011;68292;49.600;8.746;2023-06-10T05:23:01;8.40;;;7.70;;
28547;SDS011;68292;49.600;8.746;2023-06-10T05:25:47;8.35;;;7.65;;
28547;SDS011;68292;49.600;8.746;2023-06-10T05:28:34;8.02;;;7.32;;
28547;SDS011;68292;49.600;8.746;2023-06-10T05:31:20;8.98;;;7.93;;
28547;SDS011;68292;49.600;8.746;2023-06-10T05:34:07;8.98;;;7.43;;
28547;SDS011;68292;49.600;8.746;2023-06-10T05:36:55;7.88;;;7.13;;
28547;SDS011;68292;49.600;8.746;2023-06-10T05:39:42;8.15;;;7.45;;
28547;SDS011;68292;49.600;8.746;2023-06-10T05:42:28;7.95;;;7.28;;
28547;SDS011;68292;49.600;8.746;2023-06-10T05:45:15;8.00;;;7.35;;
28547;SDS011;68292;49.600;8.746;2023-06-10T05:48:01;9.32;;;7.40;;
28547;SDS011;68292;49.600;8.746;2023-06-10T05:50:49;8.32;;;7.63;;
28547;SDS011;68292;49.600;8.746;2023-06-10T05:53:39;7.32;;;6.70;;
28547;SDS011;68292;49.600;8.746;2023-06-10T05:56:26;8.07;;;7.28;;
28547;SDS011;68292;49.600;8.746;2023-06-10T05:59:13;7.65;;;6.95;;
28547;SDS011;68292;49.600;8.746;2023-06-10T06:02:00;8.05;;;7.45;;
28547;SDS011;68292;49.600;8.746;2023-06-10T06:04:46;7.47;;;6.88;;
28547;SDS011;68292;49.600;8.746;2023-06-10T06:07:33;7.70;;;6.65;;
28547;SDS011;68292;49.600;8.746;2023-06-10T06:10:21;7.32;;;6.53;;
28547;SDS011;68292;49.600;8.746;2023-06-10T06:13:08;8.02;;;6.93;;
28547;SDS011;68292;49.600;8.746;2023-06-10T06:15:55;7.72;;;6.95;;
28547;SDS011;68292;49.600;8.746;2023-06-10T06:18:41;7.80;;;7.03;;
28547;SDS011;68292;49.600;8.746;2023-06-10T06:21:28;8.57;;;7.85;;
28547;SDS011;68292;49.600;8.746;2023-06-10T06:24:15;7.47;;;6.82;;
28547;SDS011;68292;49.600;8.746;2023-06-10T06:27:04;7.80;;;7.10;;
28547;SDS011;68292;49.600;8.746;2023-06-10T06:29:51;6.57;;;5.97;;
28547;SDS011;68292;49.600;8.746;2023-06-10T06:32:38;6.78;;;6.18;;
28547;SDS011;68292;49.600;8.746;2023-06-10T06:35:25;7.32;;;6.72;;
28547;SDS011;68292;49.600;8.746;2023-06-10T06:38:12;7.45;;;6.72;;
28547;SDS011;68292;49.600;8.746;2023-06-10T06:40:59;7.53;;;6.93;;
28547;SDS011;68292;49.600;8.746;2023-06-10T06:43:49;7.22;;;6.63;;
28547;SDS011;68292;49.600;8.746;2023-06-10T06:46:47;7.43;;;6.65;;
28547;SDS011;68292;49.600;8.746;2023-06-10T06:49:34;7.60;;;6.90;;
28547;SDS011;68292;49.600;8.746;2023-06-10T06:52:21;7.95;;;7.15;;
28547;SDS011;68292;49.600;8.746;2023-06-10T06:55:08;7.88;;;7.13;;
28547;SDS011;68292;49.600;8.746;2023-06-10T06:57:55;7.07;;;6.57;;
28547;SDS011;68292;49.600;8.746;2023-06-10T07:00:43;7.47;;;6.88;;
28547;SDS011;68292;49.600;8.746;2023-06-10T07:03:30;7.72;;;7.03;;
28547;SDS011;68292;49.600;8.746;2023-06-10T07:06:17;7.85;;;7.15;;
28547;SDS011;68292;49.600;8.746;2023-06-10T07:09:04;7.03;;;6.50;;
28547;SDS011;68292;49.600;8.746;2023-06-10T07:11:51;7.75;;;7.05;;
28547;SDS011;68292;49.600;8.746;2023-06-10T07:14:38;6.80;;;6.20;;
28547;SDS011;68292;49.600;8.746;2023-06-10T07:17:25;10.25;;;6.75;;
28547;SDS011;68292;49.600;8.746;2023-06-10T07:20:13;7.75;;;6.85;;
28547;SDS011;68292;49.600;8.746;2023-06-10T07:23:00;7.70;;;7.05;;
28547;SDS011;68292;49.600;8.746;2023-06-10T07:25:46;7.88;;;7.22;;
28547;SDS011;68292;49.600;8.746;2023-06-10T07:28:33;7.20;;;6.65;;
28547;SDS011;68292;49.600;8.746;2023-06-10T07:31:20;6.97;;;6.38;;
28547;SDS011;68292;49.600;8.746;2023-06-10T07:34:08;6.28;;;5.68;;
28547;SDS011;68292;49.600;8.746;2023-06-10T07:36:54;6.57;;;5.95;;
28547;SDS011;68292;49.600;8.746;2023-06-10T07:39:41;6.38;;;5.78;;
28547;SDS011;68292;49.600;8.746;2023-06-10T07:42:28;7.00;;;5.55;;
28547;SDS011;68292;49.600;8.746;2023-06-10T07:45:14;6.43;;;5.93;;
28547;SDS011;68292;49.600;8.746;2023-06-10T07:48:01;6.00;;;5.50;;
28547;SDS011;68292;49.600;8.746;2023-06-10T07:50:49;6.22;;;5.72;;
28547;SDS011;68292;49.600;8.746;2023-06-10T07:53:36;6.38;;;5.80;;
28547;SDS011;68292;49.600;8.746;2023-06-10T07:56:22;6.00;;;5.40;;
28547;SDS011;68292;49.600;8.746;2023-06-10T07:59:11;9.13;;;6.20;;
28547;SDS011;68292;49.600;8.746;2023-06-10T08:01:59;6.38;;;5.88;;
28547;SDS011;68292;49.600;8.746;2023-06-10T08:04:45;6.47;;;5.97;;
28547;SDS011;68292;49.600;8.746;2023-06-10T08:07:34;5.93;;;5.50;;
28547;SDS011;68292;49.600;8.746;2023-06-10T08:10:20;6.70;;;6.20;;
28547;SDS011;68292;49.600;8.746;2023-06-10T08:13:07;7.10;;;6.45;;
28547;SDS011;68292;49.600;8.746;2023-06-10T08:15:55;8.30;;;6.07;;
28547;SDS011;68292;49.600;8.746;2023-06-10T08:18:41;6.63;;;6.13;;
28547;SDS011;68292;49.600;8.746;2023-06-10T08:21:28;12.65;;;6.97;;
28547;SDS011;68292;49.600;8.746;2023-06-10T08:24:16;10.07;;;6.05;;
28547;SDS011;68292;49.600;8.746;2023-06-10T08:27:04;7.00;;;6.40;;
28547;SDS011;68292;49.600;8.746;2023-06-10T08:29:51;6.75;;;6.15;;
28547;SDS011;68292;49.600;8.746;2023-06-10T08:32:38;8.00;;;6.40;;
28547;SDS011;68292;49.600;8.746;2023-06-10T08:35:25;6.68;;;6.18;;
28547;SDS011;68292;49.600;8.746;2023-06-10T08:38:11;6.30;;;5.75;;
28547;SDS011;68292;49.600;8.746;2023-06-10T08:40:59;7.93;;;6.03;;
28547;SDS011;68292;49.600;8.746;2023-06-10T08:43:48;7.03;;;6.43;;
28547;SDS011;68292;49.600;8.746;2023-06-10T08:46:45;7.95;;;7.28;;
28547;SDS011;68292;49.600;8.746;2023-06-10T08:49:34;7.47;;;6.78;;
28547;SDS011;68292;49.600;8.746;2023-06-10T08:52:27;6.63;;;6.13;;
28547;SDS011;68292;49.600;8.746;2023-06-10T08:55:21;7.63;;;6.53;;
28547;SDS011;68292;49.600;8.746;2023-06-10T08:58:17;7.05;;;6.45;;
28547;SDS011;68292;49.600;8.746;2023-06-10T09:01:05;9.02;;;6.57;;
28547;SDS011;68292;49.600;8.746;2023-06-10T09:03:52;6.75;;;6.22;;
28547;SDS011;68292;49.600;8.746;2023-06-10T09:06:40;7.68;;;7.03;;
28547;SDS011;68292;49.600;8.746;2023-06-10T09:09:27;7.65;;;6.85;;
28547;SDS011;68292;49.600;8.746;2023-06-10T09:12:15;6.72;;;6.13;;
28547;SDS011;68292;49.600;8.746;2023-06-10T09:15:04;7.53;;;6.93;;
28547;SDS011;68292;49.600;8.746;2023-06-10T09:17:52;7.07;;;6.53;;
28547;SDS011;68292;49.600;8.746;2023-06-10T09:20:41;7.57;;;6.88;;
28547;SDS011;68292;49.600;8.746;2023-06-10T09:23:29;7.20;;;6.60;;
28547;SDS011;68292;49.600;8.746;2023-06-10T09:26:17;7.47;;;6.72;;
28547;SDS011;68292;49.600;8.746;2023-06-10T09:29:05;7.35;;;6.65;;
28547;SDS011;68292;49.600;8.746;2023-06-10T09:31:55;7.72;;;7.03;;
28547;SDS011;68292;49.600;8.746;2023-06-10T09:34:41;7.80;;;6.90;;
28547;SDS011;68292;49.600;8.746;2023-06-10T09:37:29;7.53;;;6.93;;
28547;SDS011;68292;49.600;8.746;2023-06-10T09:40:16;7.28;;;6.57;;
28547;SDS011;68292;49.600;8.746;2023-06-10T09:43:02;6.93;;;6.15;;
28547;SDS011;68292;49.600;8.746;2023-06-10T09:45:49;6.80;;;6.18;;
28547;SDS011;68292;49.600;8.746;2023-06-10T09:48:41;9.48;;;6.18;;
28547;SDS011;68292;49.600;8.746;2023-06-10T09:51:29;6.28;;;5.68;;
28547;SDS011;68292;49.600;8.746;2023-06-10T09:54:16;7.35;;;5.50;;
28547;SDS011;68292;49.600;8.746;2023-06-10T09:57:06;6.57;;;5.97;;
28547;SDS011;68292;49.600;8.746;2023-06-10T09:59:54;6.38;;;5.80;;
28547;SDS011;68292;49.600;8.746;2023-06-10T10:02:45;6.93;;;5.70;;
28547;SDS011;68292;49.600;8.746;2023-06-10T10:05:35;5.93;;;5.50;;
28547;SDS011;68292;49.600;8.746;2023-06-10T10:08:22;5.13;;;4.63;;
28547;SDS011;68292;49.600;8.746;2023-06-10T10:11:08;5.63;;;5.13;;
28547;SDS011;68292;49.600;8.746;2023-06-10T10:13:56;5.82;;;5.43;;
28547;SDS011;68292;49.600;8.746;2023-06-10T10:16:43;5.97;;;5.07;;
28547;SDS011;68292;49.600;8.746;2023-06-10T10:19:31;5.78;;;5.15;;
28547;SDS011;68292;49.600;8.746;2023-06-10T10:22:25;6.72;;;5.93;;
28547;SDS011;68292;49.600;8.746;2023-06-10T10:25:13;5.70;;;5.07;;
28547;SDS011;68292;49.600;8.746;2023-06-10T10:28:09;5.47;;;4.97;;
28547;SDS011;68292;49.600;8.746;2023-06-10T10:30:59;6.88;;;6.10;;
28547;SDS011;68292;49.600;8.746;2023-06-10T10:33:55;6.55;;;5.88;;
28547;SDS011;68292;49.600;8.746;2023-06-10T10:36:45;6.38;;;5.88;;
28547;SDS011;68292;49.600;8.746;2023-06-10T10:39:34;6.00;;;5.50;;
28547;SDS011;68292;49.600;8.746;2023-06-10T10:42:22;6.68;;;5.68;;
28547;SDS011;68292;49.600;8.746;2023-06-10T10:45:10;6.60;;;5.90;;
28547;SDS011;68292;49.600;8.746;2023-06-10T10:47:57;6.28;;;5.55;;
28547;SDS011;68292;49.600;8.746;2023-06-10T10:50:55;6.28;;;5.88;;
28547;SDS011;68292;49.600;8.746;2023-06-10T10:53:43;12.27;;;5.95;;
28547;SDS011;68292;49.600;8.746;2023-06-10T10:56:31;5.60;;;5.10;;
28547;SDS011;68292;49.600;8.746;2023-06-10T10:59:18;5.28;;;4.88;;
28547;SDS011;68292;49.600;8.746;2023-06-10T11:02:05;5.57;;;5.18;;
28547;SDS011;68292;49.600;8.746;2023-06-10T11:04:51;6.22;;;5.63;;
28547;SDS011;68292;49.600;8.746;2023-06-10T11:07:41;5.85;;;5.35;;
28547;SDS011;68292;49.600;8.746;2023-06-10T11:10:39;6.10;;;4.88;;
28547;SDS011;68292;49.600;8.746;2023-06-10T11:13:28;6.70;;;5.43;;
28547;SDS011;68292;49.600;8.746;2023-06-10T11:16:18;5.72;;;5.00;;
28547;SDS011;68292;49.600;8.746;2023-06-10T11:19:06;4.95;;;4.55;;
28547;SDS011;68292;49.600;8.746;2023-06-10T11:21:58;7.25;;;4.63;;
28547;SDS011;68292;49.600;8.746;2023-06-10T11:24:49;5.57;;;5.07;;
28547;SDS011;68292;49.600;8.746;2023-06-10T11:27:37;6.13;;;5.50;;
28547;SDS011;68292;49.600;8.746;2023-06-10T11:30:27;5.75;;;5.25;;
28547;SDS011;68292;49.600;8.746;2023-06-10T11:33:20;5.65;;;5.15;;
28547;SDS011;68292;49.600;8.746;2023-06-10T11:36:07;6.78;;;4.82;;
28547;SDS011;68292;49.600;8.746;2023-06-10T11:38:56;5.63;;;5.13;;
28547;SDS011;68292;49.600;8.746;2023-06-10T11:41:44;5.45;;;4.95;;
28547;SDS011;68292;49.600;8.746;2023-06-10T11:44:31;6.30;;;5.70;;
28547;SDS011;68292;49.600;8.746;2023-06-10T11:47:24;5.45;;;5.05;;
28547;SDS011;68292;49.600;8.746;2023-06-10T11:50:11;5.93;;;5.30;;
28547;SDS011;68292;49.600;8.746;2023-06-10T11:52:58;6.03;;;5.53;;
28547;SDS011;68292;49.600;8.746;2023-06-10T11:55:46;5.60;;;5.20;;
28547;SDS011;68292;49.600;8.746;2023-06-10T11:58:34;5.60;;;5.10;;
28547;SDS011;68292;49.600;8.746;2023-06-10T12:01:20;5.70;;;5.20;;
28547;SDS011;68292;49.600;8.746;2023-06-10T12:04:15;5.55;;;5.13;;
28547;SDS011;68292;49.600;8.746;2023-06-10T12:07:04;5.28;;;4.78;;
28547;SDS011;68292;49.600;8.746;2023-06-10T12:09:58;4.63;;;4.32;;
28547;SDS011;68292;49.600;8.746;2023-06-10T12:13:05;6.90;;;4.80;;
28547;SDS011;68292;49.600;8.746;2023-06-10T12:15:52;5.30;;;4.82;;
28547;SDS011;68292;49.600;8.746;2023-06-10T12:18:39;5.10;;;4.70;;
28547;SDS011;68292;49.600;8.746;2023-06-10T12:21:30;6.72;;;4.85;;
28547;SDS011;68292;49.600;8.746;2023-06-10T12:24:17;5.15;;;4.75;;
28547;SDS011;68292;49.600;8.746;2023-06-10T12:27:04;5.35;;;4.70;;
28547;SDS011;68292;49.600;8.746;2023-06-10T12:29:57;5.28;;;4.88;;
28547;SDS011;68292;49.600;8.746;2023-06-10T12:32:48;5.15;;;4.75;;
28547;SDS011;68292;49.600;8.746;2023-06-10T12:35:37;4.82;;;4.43;;
28547;SDS011;68292;49.600;8.746;2023-06-10T12:38:35;4.97;;;4.47;;
28547;SDS011;68292;49.600;8.746;2023-06-10T12:41:22;6.65;;;4.45;;
28547;SDS011;68292;49.600;8.746;2023-06-10T12:44:10;5.28;;;4.25;;
28547;SDS011;68292;49.600;8.746;2023-06-10T12:46:56;4.78;;;4.28;;
28547;SDS011;68292;49.600;8.746;2023-06-10T12:49:43;4.40;;;4.00;;
28547;SDS011;68292;49.600;8.746;2023-06-10T12:52:30;4.75;;;4.43;;
28547;SDS011;68292;49.600;8.746;2023-06-10T12:55:18;5.30;;;4.90;;
28547;SDS011;68292;49.600;8.746;2023-06-10T12:58:05;5.03;;;4.63;;
28547;SDS011;68292;49.600;8.746;2023-06-10T13:00:51;5.13;;;4.72;;
28547;SDS011;68292;49.600;8.746;2023-06-10T13:03:38;4.90;;;4.60;;
28547;SDS011;68292;49.600;8.746;2023-06-10T13:06:25;4.90;;;4.60;;
28547;SDS011;68292;49.600;8.746;2023-06-10T13:09:12;5.28;;;4.88;;
28547;SDS011;68292;49.600;8.746;2023-06-10T13:12:01;6.75;;;4.78;;
28547;SDS011;68292;49.600;8.746;2023-06-10T13:14:48;4.70;;;4.40;;
28547;SDS011;68292;49.600;8.746;2023-06-10T13:17:34;4.68;;;4.35;;
28547;SDS011;68292;49.600;8.746;2023-06-10T13:20:21;4.55;;;4.25;;
28547;SDS011;68292;49.600;8.746;2023-06-10T13:23:08;4.63;;;4.22;;
28547;SDS011;68292;49.600;8.746;2023-06-10T13:25:55;4.65;;;4.30;;
28547;SDS011;68292;49.600;8.746;2023-06-10T13:28:43;5.72;;;5.10;;
28547;SDS011;68292;49.600;8.746;2023-06-10T13:31:30;4.90;;;4.50;;
28547;SDS011;68292;49.600;8.746;2023-06-10T13:34:17;5.10;;;4.70;;
28547;SDS011;68292;49.600;8.746;2023-06-10T13:37:04;5.05;;;4.65;;
28547;SDS011;68292;49.600;8.746;2023-06-10T13:39:51;4.90;;;4.50;;
28547;SDS011;68292;49.600;8.746;2023-06-10T13:42:38;5.10;;;4.65;;
28547;SDS011;68292;49.600;8.746;2023-06-10T13:45:26;5.15;;;4.50;;
28547;SDS011;68292;49.600;8.746;2023-06-10T13:48:12;4.78;;;4.38;;
28547;SDS011;68292;49.600;8.746;2023-06-10T13:50:59;4.55;;;4.20;;
28547;SDS011;68292;49.600;8.746;2023-06-10T13:53:46;6.30;;;4.88;;
28547;SDS011;68292;49.600;8.746;2023-06-10T13:56:32;5.28;;;4.75;;
28547;SDS011;68292;49.600;8.746;2023-06-10T13:59:22;5.45;;;4.68;;
28547;SDS011;68292;49.600;8.746;2023-06-10T14:02:10;5.35;;;4.95;;
28547;SDS011;68292;49.600;8.746;2023-06-10T14:04:57;4.80;;;4.40;;
28547;SDS011;68292;49.600;8.746;2023-06-10T14:07:44;4.90;;;4.55;;
28547;SDS011;68292;49.600;8.746;2023-06-10T14:10:31;5.53;;;4.65;;
28547;SDS011;68292;49.600;8.746;2023-06-10T14:13:17;5.25;;;4.82;;
28547;SDS011;68292;49.600;8.746;2023-06-10T14:16:04;5.15;;;4.75;;
28547;SDS011;68292;49.600;8.746;2023-06-10T14:18:52;5.47;;;4.97;;
28547;SDS011;68292;49.600;8.746;2023-06-10T14:21:38;5.22;;;4.72;;
28547;SDS011;68292;49.600;8.746;2023-06-10T14:24:25;5.05;;;4.57;;
28547;SDS011;68292;49.600;8.746;2023-06-10T14:27:12;5.93;;;4.45;;
28547;SDS011;68292;49.600;8.746;2023-06-10T14:29:58;4.93;;;4.40;;
28547;SDS011;68292;49.600;8.746;2023-06-10T14:32:45;5.53;;;4.60;;
28547;SDS011;68292;49.600;8.746;2023-06-10T14:35:34;5.70;;;5.20;;
28547;SDS011;68292;49.600;8.746;2023-06-10T14:38:21;4.88;;;4.47;;
28547;SDS011;68292;49.600;8.746;2023-06-10T14:41:09;22.92;;;6.03;;
28547;SDS011;68292;49.600;8.746;2023-06-10T14:43:57;6.45;;;5.95;;
28547;SDS011;68292;49.600;8.746;2023-06-10T14:46:44;5.75;;;5.25;;
28547;SDS011;68292;49.600;8.746;2023-06-10T14:49:30;5.53;;;5.03;;
28547;SDS011;68292;49.600;8.746;2023-06-10T14:52:19;5.40;;;4.93;;
28547;SDS011;68292;49.600;8.746;2023-06-10T14:55:09;5.20;;;4.55;;
28547;SDS011;68292;49.600;8.746;2023-06-10T14:57:56;5.35;;;4.90;;
28547;SDS011;68292;49.600;8.746;2023-06-10T15:00:42;5.32;;;4.90;;
28547;SDS011;68292;49.600;8.746;2023-06-10T15:03:29;4.93;;;4.55;;
28547;SDS011;68292;49.600;8.746;2023-06-10T15:06:16;5.40;;;5.00;;
28547;SDS011;68292;49.600;8.746;2023-06-10T15:09:07;5.30;;;4.82;;
28547;SDS011;68292;49.600;8.746;2023-06-10T15:11:53;5.30;;;4.82;;
28547;SDS011;68292;49.600;8.746;2023-06-10T15:14:40;5.53;;;5.13;;
28547;SDS011;68292;49.600;8.746;2023-06-10T15:17:27;6.80;;;5.00;;
28547;SDS011;68292;49.600;8.746;2023-06-10T15:20:13;6.22;;;4.78;;
28547;SDS011;68292;49.600;8.746;2023-06-10T15:23:00;5.60;;;4.72;;
28547;SDS011;68292;49.600;8.746;2023-06-10T15:25:48;5.30;;;4.80;;
28547;SDS011;68292;49.600;8.746;2023-06-10T15:28:35;5.72;;;5.18;;
28547;SDS011;68292;49.600;8.746;2023-06-10T15:31:22;5.40;;;4.97;;
28547;SDS011;68292;49.600;8.746;2023-06-10T15:34:08;5.15;;;4.70;;
28547;SDS011;68292;49.600;8.746;2023-06-10T15:36:55;6.07;;;5.30;;
28547;SDS011;68292;49.600;8.746;2023-06-10T15:39:42;4.80;;;4.40;;
28547;SDS011;68292;49.600;8.746;2023-06-10T15:42:30;5.55;;;5.05;;
28547;SDS011;68292;49.600;8.746;2023-06-10T15:45:17;4.60;;;4.20;;
28547;SDS011;68292;49.600;8.746;2023-06-10T15:48:03;4.80;;;4.40;;
28547;SDS011;68292;49.600;8.746;2023-06-10T15:50:51;5.15;;;4.45;;
28547;SDS011;68292;49.600;8.746;2023-06-10T15:53:38;4.85;;;4.40;;
28547;SDS011;68292;49.600;8.746;2023-06-10T15:56:24;7.55;;;4.70;;
28547;SDS011;68292;49.600;8.746;2023-06-10T15:59:12;5.38;;;4.97;;
28547;SDS011;68292;49.600;8.746;2023-06-10T16:01:59;7.97;;;6.35;;
28547;SDS011;68292;49.600;8.746;2023-06-10T16:04:46;5.30;;;4.80;;
28547;SDS011;68292;49.600;8.746;2023-06-10T16:07:32;5.50;;;5.05;;
28547;SDS011;68292;49.600;8.746;2023-06-10T16:10:19;5.43;;;4.93;;
28547;SDS011;68292;49.600;8.746;2023-06-10T16:13:07;5.07;;;4.63;;
28547;SDS011;68292;49.600;8.746;2023-06-10T16:15:55;5.18;;;4.70;;
28547;SDS011;68292;49.600;8.746;2023-06-10T16:18:42;5.57;;;5.10;;
28547;SDS011;68292;49.600;8.746;2023-06-10T16:21:28;5.30;;;4.65;;
28547;SDS011;68292;49.600;8.746;2023-06-10T16:24:15;6.28;;;4.85;;
28547;SDS011;68292;49.600;8.746;2023-06-10T16:27:02;5.15;;;4.65;;
28547;SDS011;68292;49.600;8.746;2023-06-10T16:29:52;5.55;;;5.05;;
28547;SDS011;68292;49.600;8.746;2023-06-10T16:32:39;5.68;;;5.18;;
28547;SDS011;68292;49.600;8.746;2023-06-10T16:35:26;5.75;;;5.15;;
28547;SDS011;68292;49.600;8.746;2023-06-10T16:38:13;7.47;;;5.20;;
28547;SDS011;68292;49.600;8.746;2023-06-10T16:40:59;6.72;;;5.32;;
28547;SDS011;68292;49.600;8.746;2023-06-10T16:43:46;6.63;;;4.63;;
28547;SDS011;68292;49.600;8.746;2023-06-10T16:46:33;5.25;;;4.85;;
28547;SDS011;68292;49.600;8.746;2023-06-10T16:49:21;5.43;;;5.03;;
28547;SDS011;68292;49.600;8.746;2023-06-10T16:52:07;4.88;;;4.50;;
28547;SDS011;68292;49.600;8.746;2023-06-10T16:54:54;5.72;;;5.22;;